createdAt,value
2018-07-24T00:00:41.140Z,43.33
2018-07-24T00:03:09.976Z,39.90
2018-07-24T00:05:38.823Z,37.73
2018-07-24T00:08:07.605Z,44.90
2018-07-24T00:10:36.336Z,49.53
2018-07-24T00:13:04.971Z,53.33
2018-07-24T00:15:33.862Z,49.37
2018-07-24T00:18:02.604Z,59.00
2018-07-24T00:20:31.404Z,43.20
2018-07-24T00:23:00.124Z,46.57
2018-07-24T00:25:28.952Z,46.73
2018-07-24T00:27:58.031Z,47.00
2018-07-24T00:30:26.800Z,46.80
2018-07-24T00:32:55.584Z,48.40
2018-07-24T00:35:24.328Z,47.63
2018-07-24T00:37:53.051Z,53.30
2018-07-24T00:40:21.786Z,45.00
2018-07-24T00:42:50.602Z,48.30
2018-07-24T00:45:19.477Z,54.47
2018-07-24T00:47:48.548Z,46.90
2018-07-24T00:50:17.297Z,50.40
2018-07-24T00:52:46.055Z,51.83
2018-07-24T00:55:15.128Z,54.90
2018-07-24T00:57:43.824Z,53.37
2018-07-24T01:00:12.447Z,59.43
2018-07-24T01:02:41.292Z,59.90
2018-07-24T01:05:10.084Z,48.60
2018-07-24T01:07:39.303Z,46.63
2018-07-24T01:10:10.120Z,46.80
2018-07-24T01:12:38.750Z,44.63
2018-07-24T01:15:08.023Z,51.63
2018-07-24T01:17:37.393Z,50.20
2018-07-24T01:20:06.521Z,51.63
2018-07-24T01:22:35.576Z,52.90
2018-07-24T01:25:04.387Z,46.93
2018-07-24T01:27:33.324Z,52.03
2018-07-24T01:30:02.547Z,55.30
2018-07-24T01:32:31.176Z,52.37
2018-07-24T01:34:59.907Z,52.00
2018-07-24T01:37:28.653Z,50.30
2018-07-24T01:39:57.522Z,50.37
2018-07-24T01:42:26.136Z,50.30
2018-07-24T01:44:54.903Z,42.97
2018-07-24T01:47:23.968Z,46.70
2018-07-24T01:49:52.528Z,47.87
2018-07-24T01:52:21.988Z,53.73
2018-07-24T01:54:50.562Z,50.10
2018-07-24T01:57:19.201Z,56.93
2018-07-24T01:59:47.991Z,56.70
2018-07-24T02:02:16.592Z,47.07
2018-07-24T02:04:45.779Z,57.57
2018-07-24T02:07:14.588Z,54.57
2018-07-24T02:09:43.472Z,47.50
2018-07-24T02:12:12.427Z,54.43
2018-07-24T02:14:41.127Z,51.33
2018-07-24T02:17:09.952Z,57.47
2018-07-24T02:19:38.592Z,53.23
2018-07-24T02:22:07.507Z,49.90
2018-07-24T02:24:36.179Z,53.27
2018-07-24T02:27:05.484Z,53.23
2018-07-24T02:29:34.082Z,50.43
2018-07-24T02:32:03.190Z,54.40
2018-07-24T02:34:31.893Z,54.60
2018-07-24T02:37:00.579Z,61.30
2018-07-24T02:39:29.337Z,55.43
2018-07-24T02:41:58.542Z,53.90
2018-07-24T02:44:27.198Z,60.17
2018-07-24T02:46:56.026Z,55.37
2018-07-24T02:49:24.778Z,53.67
2018-07-24T02:51:53.696Z,56.43
2018-07-24T02:54:22.604Z,58.73
2018-07-24T02:56:51.236Z,54.60
2018-07-24T02:59:20.040Z,56.07
2018-07-24T03:01:49.293Z,54.13
2018-07-24T03:04:18.037Z,58.40
2018-07-24T03:06:46.735Z,53.77
2018-07-24T03:09:15.824Z,56.30
2018-07-24T03:11:44.536Z,54.27
2018-07-24T03:14:13.173Z,61.40
2018-07-24T03:16:41.990Z,54.47
2018-07-24T03:19:10.635Z,59.93
2018-07-24T03:21:39.327Z,52.53
2018-07-24T03:24:08.179Z,77.77
2018-07-24T03:26:37.131Z,58.03
2018-07-24T03:29:06.264Z,58.70
2018-07-24T03:31:34.906Z,57.30
2018-07-24T03:34:03.524Z,60.57
2018-07-24T03:36:32.325Z,64.83
2018-07-24T03:39:01.140Z,71.27
2018-07-24T03:41:29.951Z,57.30
2018-07-24T03:43:58.637Z,60.27
2018-07-24T03:46:27.652Z,61.53
2018-07-24T03:48:56.403Z,66.67
2018-07-24T03:51:25.211Z,58.07
2018-07-24T03:53:54.067Z,59.60
2018-07-24T03:56:22.781Z,58.93
2018-07-24T03:58:51.613Z,57.60
2018-07-24T04:01:20.303Z,54.77
2018-07-24T04:03:48.983Z,58.60
2018-07-24T04:06:17.634Z,58.90
2018-07-24T04:08:46.345Z,62.53
2018-07-24T04:11:15.106Z,58.23
2018-07-24T04:13:44.550Z,53.60
2018-07-24T04:16:13.316Z,58.87
2018-07-24T04:18:50.079Z,55.40
2018-07-24T04:21:20.012Z,51.77
2018-07-24T04:23:49.491Z,65.20
2018-07-24T04:26:18.172Z,51.53
2018-07-24T04:28:47.604Z,54.60
2018-07-24T04:31:16.252Z,58.33
2018-07-24T04:33:45.127Z,57.20
2018-07-24T04:36:13.855Z,56.83
2018-07-24T04:38:42.440Z,57.50
2018-07-24T04:41:11.253Z,50.93
2018-07-24T04:43:40.040Z,54.83
2018-07-24T04:46:08.839Z,59.17
2018-07-24T04:48:37.528Z,59.73
2018-07-24T04:51:06.384Z,55.10
2018-07-24T04:53:35.163Z,52.17
2018-07-24T04:56:04.128Z,58.20
2018-07-24T04:58:32.852Z,56.50
2018-07-24T05:01:01.504Z,54.20
2018-07-24T05:03:30.308Z,52.20
2018-07-24T05:05:59.252Z,51.37
2018-07-24T05:08:27.852Z,56.47
2018-07-24T05:10:56.869Z,57.57
2018-07-24T05:13:25.603Z,80.87
2018-07-24T05:15:55.255Z,54.43
2018-07-24T05:18:23.940Z,63.87
2018-07-24T05:20:52.666Z,49.73
2018-07-24T05:23:21.585Z,66.23
2018-07-24T05:25:50.217Z,49.73
2018-07-24T05:28:18.928Z,60.70
2018-07-24T05:30:47.628Z,53.07
2018-07-24T05:33:16.377Z,50.40
2018-07-24T05:35:45.302Z,47.83
2018-07-24T05:38:13.999Z,45.60
2018-07-24T05:40:42.739Z,53.20
2018-07-24T05:43:11.820Z,57.27
2018-07-24T05:45:40.613Z,57.67
2018-07-24T05:48:09.328Z,43.63
2018-07-24T05:50:38.243Z,46.83
2018-07-24T05:53:07.075Z,54.87
2018-07-24T05:55:36.793Z,53.47
2018-07-24T05:58:05.403Z,53.10
2018-07-24T06:00:34.188Z,53.30
2018-07-24T06:03:02.947Z,47.70
2018-07-24T06:05:31.669Z,53.47
2018-07-24T06:08:00.322Z,50.70
2018-07-24T06:10:28.901Z,52.00
2018-07-24T06:12:57.595Z,52.77
2018-07-24T06:15:26.281Z,43.67
2018-07-24T06:17:55.005Z,46.83
2018-07-24T06:20:24.095Z,40.40
2018-07-24T06:22:52.811Z,51.20
2018-07-24T06:25:21.531Z,43.20
2018-07-24T06:27:50.223Z,43.67
2018-07-24T06:30:18.989Z,46.43
2018-07-24T06:32:47.950Z,42.60
2018-07-24T06:35:16.816Z,47.50
2018-07-24T06:37:45.728Z,44.23
2018-07-24T06:40:14.437Z,40.77
2018-07-24T06:42:43.389Z,38.43
2018-07-24T06:45:12.097Z,38.27
2018-07-24T06:47:40.840Z,40.10
2018-07-24T06:50:09.631Z,34.57
2018-07-24T06:52:38.732Z,32.87
2018-07-24T06:55:07.556Z,34.20
2018-07-24T06:57:36.289Z,36.13
2018-07-24T07:00:05.380Z,27.47
2018-07-24T07:02:34.081Z,28.20
2018-07-24T07:05:03.111Z,24.80
2018-07-24T07:07:31.866Z,27.13
2018-07-24T07:10:00.429Z,32.40
2018-07-24T07:12:29.460Z,22.70
2018-07-24T07:14:58.220Z,33.37
2018-07-24T07:17:27.020Z,20.07
2018-07-24T07:19:56.235Z,20.67
2018-07-24T07:22:25.418Z,22.23
2018-07-24T07:24:54.248Z,28.23
2018-07-24T07:27:23.207Z,24.93
2018-07-24T07:29:51.824Z,24.87
2018-07-24T07:32:20.880Z,21.20
2018-07-24T07:34:49.986Z,28.23
2018-07-24T07:37:18.903Z,25.10
2018-07-24T07:39:47.587Z,25.30
2018-07-24T07:42:16.578Z,24.37
2018-07-24T07:44:45.200Z,36.00
2018-07-24T07:47:13.966Z,31.13
2018-07-24T07:49:42.660Z,25.07
2018-07-24T07:52:11.580Z,27.13
2018-07-24T07:54:40.348Z,27.70
2018-07-24T07:57:09.416Z,25.40
2018-07-24T07:59:38.147Z,26.97
2018-07-24T08:02:06.833Z,24.13
2018-07-24T08:04:35.764Z,20.53
2018-07-24T08:07:04.412Z,25.97
2018-07-24T08:09:33.204Z,18.73
2018-07-24T08:12:02.044Z,23.43
2018-07-24T08:14:30.763Z,21.60
2018-07-24T08:16:59.463Z,19.73
2018-07-24T08:19:28.224Z,21.40
2018-07-24T08:21:57.020Z,23.60
2018-07-24T08:24:25.771Z,17.70
2018-07-24T08:26:54.965Z,20.10
2018-07-24T08:29:24.088Z,24.87
2018-07-24T08:31:52.683Z,21.80
2018-07-24T08:34:21.956Z,29.60
2018-07-24T08:36:50.745Z,18.80
2018-07-24T08:39:19.600Z,20.80
2018-07-24T08:41:48.544Z,20.00
2018-07-24T08:44:17.380Z,26.13
2018-07-24T08:46:46.237Z,14.80
2018-07-24T08:49:15.000Z,17.53
2018-07-24T08:51:43.873Z,15.47
2018-07-24T08:54:12.596Z,11.00
2018-07-24T08:56:41.603Z,14.00
2018-07-24T08:59:10.280Z,15.03
2018-07-24T09:01:38.983Z,11.93
2018-07-24T09:04:07.912Z,10.97
2018-07-24T09:06:36.537Z,10.33
2018-07-24T09:09:08.321Z,10.73
2018-07-24T09:11:37.045Z,10.67
2018-07-24T09:14:05.827Z,9.87
2018-07-24T09:16:34.824Z,11.83
2018-07-24T09:19:03.412Z,10.70
2018-07-24T09:21:32.041Z,10.23
2018-07-24T09:24:00.976Z,10.70
2018-07-24T09:26:47.525Z,9.80
2018-07-24T09:29:16.376Z,10.90
2018-07-24T09:31:45.444Z,13.93
2018-07-24T09:34:14.226Z,10.90
2018-07-24T09:36:43.443Z,9.83
2018-07-24T09:39:12.419Z,12.47
2018-07-24T09:41:41.004Z,9.80
2018-07-24T09:44:10.112Z,8.50
2018-07-24T09:46:38.754Z,9.17
2018-07-24T09:49:07.343Z,9.57
2018-07-24T09:51:36.272Z,9.10
2018-07-24T09:54:04.907Z,8.57
2018-07-24T09:56:33.660Z,9.53
2018-07-24T09:59:02.343Z,11.13
2018-07-24T10:01:33.484Z,8.73
2018-07-24T10:04:03.117Z,9.27
2018-07-24T10:06:32.872Z,8.53
2018-07-24T10:09:01.548Z,8.50
2018-07-24T10:11:30.272Z,8.80
2018-07-24T10:13:58.925Z,8.40
2018-07-24T10:16:27.541Z,10.80
2018-07-24T10:18:56.278Z,8.30
2018-07-24T10:21:24.923Z,7.50
2018-07-24T10:23:53.624Z,8.17
2018-07-24T10:26:22.320Z,10.53
2018-07-24T10:28:50.936Z,7.50
2018-07-24T10:31:19.984Z,8.23
2018-07-24T10:33:51.852Z,10.80
2018-07-24T10:36:20.681Z,7.10
2018-07-24T10:38:49.244Z,6.97
2018-07-24T10:41:17.963Z,6.93
2018-07-24T10:43:46.637Z,7.53
2018-07-24T10:46:15.187Z,7.33
2018-07-24T10:48:43.985Z,7.93
2018-07-24T10:51:12.796Z,8.17
2018-07-24T10:53:41.955Z,8.13
2018-07-24T10:56:10.720Z,9.17
2018-07-24T10:58:39.471Z,9.40
2018-07-24T11:01:08.356Z,7.33
2018-07-24T11:03:36.956Z,8.10
2018-07-24T11:06:05.615Z,8.30
2018-07-24T11:08:34.419Z,9.17
2018-07-24T11:11:03.386Z,10.40
2018-07-24T11:13:32.337Z,7.60
2018-07-24T11:16:01.341Z,9.47
2018-07-24T11:18:30.012Z,5.90
2018-07-24T11:20:58.823Z,8.90
2018-07-24T11:23:27.604Z,7.00
2018-07-24T11:25:56.492Z,6.80
2018-07-24T11:28:25.283Z,7.03
2018-07-24T11:30:53.900Z,6.50
2018-07-24T11:33:22.544Z,6.60
2018-07-24T11:35:51.477Z,7.67
2018-07-24T11:38:20.060Z,7.25
2018-07-24T11:40:49.104Z,6.67
2018-07-24T11:43:17.750Z,11.00
2018-07-24T11:45:46.540Z,6.83
2018-07-24T11:48:15.440Z,7.80
2018-07-24T11:50:43.983Z,6.92
2018-07-24T11:53:12.583Z,7.15
2018-07-24T11:55:41.228Z,7.37
2018-07-24T11:58:09.875Z,5.70
2018-07-24T12:00:38.681Z,6.67
2018-07-24T12:03:07.905Z,6.00
2018-07-24T12:05:36.652Z,7.03
2018-07-24T12:08:05.324Z,6.17
2018-07-24T12:10:34.045Z,6.25
2018-07-24T12:13:02.710Z,8.00
2018-07-24T12:15:31.371Z,7.12
2018-07-24T12:18:00.021Z,6.72
2018-07-24T12:20:28.604Z,10.08
2018-07-24T12:22:57.228Z,6.53
2018-07-24T12:25:26.056Z,6.85
2018-07-24T12:27:54.971Z,6.40
2018-07-24T12:30:23.507Z,5.62
2018-07-24T12:32:52.430Z,5.87
2018-07-24T12:35:21.291Z,7.17
2018-07-24T12:37:49.947Z,6.50
2018-07-24T12:40:18.896Z,6.20
2018-07-24T12:42:47.636Z,6.28
2018-07-24T12:45:16.337Z,6.08
2018-07-24T12:47:45.255Z,10.70
2018-07-24T12:50:13.816Z,5.75
2018-07-24T12:52:42.593Z,6.03
2018-07-24T12:55:11.684Z,6.30
2018-07-24T12:57:40.484Z,5.70
2018-07-24T13:00:09.388Z,7.72
2018-07-24T13:02:38.519Z,5.97
2018-07-24T13:05:07.142Z,7.53
2018-07-24T13:07:35.741Z,7.33
2018-07-24T13:10:04.863Z,6.50
2018-07-24T13:12:33.409Z,6.25
2018-07-24T13:15:01.988Z,7.33
2018-07-24T13:17:30.761Z,6.78
2018-07-24T13:19:59.536Z,8.65
2018-07-24T13:22:28.272Z,9.08
2018-07-24T13:24:56.971Z,5.78
2018-07-24T13:27:25.680Z,11.45
2018-07-24T13:29:54.472Z,7.42
2018-07-24T13:32:23.279Z,5.12
2018-07-24T13:34:51.923Z,6.03
2018-07-24T13:37:20.732Z,11.18
2018-07-24T13:39:49.604Z,7.10
2018-07-24T13:42:18.556Z,9.23
2018-07-24T13:44:47.132Z,6.87
2018-07-24T13:47:15.991Z,7.22
2018-07-24T13:49:44.932Z,7.70
2018-07-24T13:52:13.791Z,6.35
2018-07-24T13:54:42.576Z,8.87
2018-07-24T13:57:11.850Z,6.37
2018-07-24T13:59:40.894Z,7.40
2018-07-24T14:02:09.911Z,8.90
2018-07-24T14:04:38.842Z,12.73
2018-07-24T14:07:09.432Z,6.20
2018-07-24T14:09:38.581Z,7.83
2018-07-24T14:12:07.504Z,6.63
2018-07-24T14:14:36.332Z,7.33
2018-07-24T14:17:05.215Z,6.50
2018-07-24T14:19:33.779Z,6.23
2018-07-24T14:22:03.103Z,9.33
2018-07-24T14:24:32.220Z,7.57
2018-07-24T14:27:00.954Z,7.80
2018-07-24T14:29:29.694Z,8.03
2018-07-24T14:31:58.533Z,6.53
2018-07-24T14:34:27.378Z,7.67
2018-07-24T14:36:56.172Z,7.97
2018-07-24T14:39:24.877Z,6.70
2018-07-24T14:41:53.695Z,6.43
2018-07-24T14:44:22.903Z,8.17
2018-07-24T14:46:51.559Z,6.90
2018-07-24T14:49:20.240Z,8.30
2018-07-24T14:51:48.851Z,7.00
2018-07-24T14:54:17.508Z,11.67
2018-07-24T14:56:47.128Z,6.50
2018-07-24T14:59:16.095Z,6.93
2018-07-24T15:01:44.691Z,7.83
2018-07-24T15:04:13.303Z,7.70
2018-07-24T15:06:42.309Z,6.10
2018-07-24T15:09:12.423Z,6.37
2018-07-24T15:11:41.533Z,8.03
2018-07-24T15:14:10.594Z,7.20
2018-07-24T15:16:39.220Z,14.17
2018-07-24T15:19:07.868Z,7.43
2018-07-24T15:21:36.628Z,6.80
2018-07-24T15:24:05.606Z,6.50
2018-07-24T15:26:45.823Z,7.10
2018-07-24T15:29:14.468Z,7.40
2018-07-24T15:31:43.056Z,12.40
2018-07-24T15:34:11.695Z,7.80
2018-07-24T15:36:40.723Z,7.00
2018-07-24T15:39:12.614Z,13.83
2018-07-24T15:41:41.969Z,8.00
2018-07-24T15:44:10.808Z,11.63
2018-07-24T15:46:40.079Z,7.67
2018-07-24T15:49:08.669Z,7.60
2018-07-24T15:51:37.759Z,8.00
2018-07-24T15:54:06.709Z,9.07
2018-07-24T15:56:35.270Z,8.40
2018-07-24T15:59:04.021Z,8.67
2018-07-24T16:01:32.807Z,10.27
2018-07-24T16:04:01.564Z,8.03
2018-07-24T16:06:30.622Z,8.13
2018-07-24T16:08:59.400Z,8.53
2018-07-24T16:11:28.093Z,12.33
2018-07-24T16:13:56.820Z,7.10
2018-07-24T16:16:25.799Z,8.43
2018-07-24T16:18:54.432Z,7.60
2018-07-24T16:21:23.118Z,7.87
2018-07-24T16:23:51.754Z,7.70
2018-07-24T16:26:20.547Z,9.87
2018-07-24T16:28:49.404Z,6.27
2018-07-24T16:31:19.554Z,6.80
2018-07-24T16:33:49.177Z,8.07
2018-07-24T16:36:17.864Z,8.73
2018-07-24T16:38:47.124Z,7.90
2018-07-24T16:41:19.012Z,6.80
2018-07-24T16:43:48.681Z,7.37
2018-07-24T16:46:18.024Z,6.60
2018-07-24T16:48:46.981Z,8.60
2018-07-24T16:51:16.382Z,11.13
2018-07-24T16:53:46.282Z,7.07
2018-07-24T16:56:16.098Z,8.33
2018-07-24T16:58:46.007Z,13.10
2018-07-24T17:01:16.277Z,10.30
2018-07-24T17:03:46.912Z,7.90
2018-07-24T17:06:17.659Z,7.17
2018-07-24T17:08:46.271Z,7.93
2018-07-24T17:11:16.404Z,7.23
2018-07-24T17:13:45.182Z,7.40
2018-07-24T17:16:14.733Z,8.20
2018-07-24T17:18:43.487Z,8.07
2018-07-24T17:21:12.356Z,7.80
2018-07-24T17:23:42.381Z,10.13
2018-07-24T17:26:13.015Z,8.87
2018-07-24T17:28:43.063Z,9.73
2018-07-24T17:31:13.091Z,8.43
2018-07-24T17:33:42.405Z,6.80
2018-07-24T17:36:11.549Z,10.00
2018-07-24T17:38:42.362Z,6.60
2018-07-24T17:41:12.261Z,6.63
2018-07-24T17:43:42.688Z,12.60
2018-07-24T17:46:12.893Z,10.80
2018-07-24T17:48:42.556Z,6.97
2018-07-24T17:51:12.598Z,7.40
2018-07-24T17:53:41.350Z,8.00
2018-07-24T17:56:10.187Z,9.90
2018-07-24T17:58:38.832Z,8.40
2018-07-24T18:01:07.428Z,8.00
2018-07-24T18:03:36.091Z,7.87
2018-07-24T18:06:05.011Z,7.17
2018-07-24T18:08:33.824Z,7.97
2018-07-24T18:11:03.876Z,8.10
2018-07-24T18:13:32.652Z,7.10
2018-07-24T18:16:01.287Z,8.23
2018-07-24T18:18:30.049Z,11.80
2018-07-24T18:20:58.640Z,9.97
2018-07-24T18:23:27.495Z,8.37
2018-07-24T18:25:56.804Z,8.20
2018-07-24T18:28:25.414Z,14.03
2018-07-24T18:30:54.313Z,9.73
2018-07-24T18:33:23.599Z,20.73
2018-07-24T18:35:53.136Z,13.93
2018-07-24T18:38:22.051Z,7.80
2018-07-24T18:40:51.158Z,9.17
2018-07-24T18:43:19.728Z,14.77
2018-07-24T18:45:48.432Z,9.63
2018-07-24T18:48:17.143Z,13.10
2018-07-24T18:50:46.137Z,12.53
2018-07-24T18:53:14.957Z,11.07
2018-07-24T18:55:43.547Z,15.53
2018-07-24T18:58:12.109Z,18.40
2018-07-24T19:00:41.643Z,10.10
2018-07-24T19:03:10.660Z,12.80
2018-07-24T19:05:39.288Z,16.60
2018-07-24T19:08:07.880Z,13.20
2018-07-24T19:10:37.573Z,15.07
2018-07-24T19:13:06.476Z,13.20
2018-07-24T19:15:35.164Z,17.50
2018-07-24T19:18:04.022Z,14.40
2018-07-24T19:20:32.704Z,12.40
2018-07-24T19:23:01.550Z,13.77
2018-07-24T19:25:30.456Z,14.77
2018-07-24T19:27:59.289Z,9.43
2018-07-24T19:30:28.045Z,18.23
2018-07-24T19:32:56.714Z,9.50
2018-07-24T19:35:25.376Z,12.30
2018-07-24T19:37:54.162Z,15.90
2018-07-24T19:40:23.320Z,12.63
2018-07-24T19:42:52.277Z,14.30
2018-07-24T19:45:20.943Z,16.03
2018-07-24T19:47:49.676Z,29.03
2018-07-24T19:50:18.268Z,13.30
2018-07-24T19:52:46.881Z,12.20
2018-07-24T19:55:15.796Z,11.53
2018-07-24T19:57:44.623Z,13.60
2018-07-24T20:00:14.072Z,13.10
2018-07-24T20:02:42.914Z,12.47
2018-07-24T20:05:12.321Z,12.40
2018-07-24T20:07:41.651Z,17.50
2018-07-24T20:10:10.402Z,13.73
2018-07-24T20:12:39.048Z,21.80
2018-07-24T20:15:07.803Z,16.63
2018-07-24T20:17:37.084Z,19.00
2018-07-24T20:20:06.472Z,14.93
2018-07-24T20:22:35.375Z,15.50
2018-07-24T20:25:04.471Z,15.50
2018-07-24T20:27:33.211Z,24.23
2018-07-24T20:30:01.875Z,17.90
2018-07-24T20:32:30.488Z,12.70
2018-07-24T20:34:59.250Z,15.43
2018-07-24T20:37:28.224Z,12.13
2018-07-24T20:39:57.287Z,17.77
2018-07-24T20:42:26.636Z,18.13
2018-07-24T20:44:56.081Z,12.70
2018-07-24T20:47:25.506Z,17.47
2018-07-24T20:49:54.216Z,14.87
2018-07-24T20:52:23.193Z,15.17
2018-07-24T20:54:53.163Z,15.87
2018-07-24T20:57:21.839Z,18.20
2018-07-24T20:59:50.656Z,19.17
2018-07-24T21:02:19.624Z,18.83
2018-07-24T21:04:48.509Z,14.20
2018-07-24T21:07:17.226Z,18.60
2018-07-24T21:09:45.920Z,16.40
2018-07-24T21:12:14.692Z,16.93
2018-07-24T21:14:43.779Z,16.00
2018-07-24T21:17:12.683Z,16.27
2018-07-24T21:19:41.275Z,20.23
2018-07-24T21:22:09.996Z,16.00
2018-07-24T21:24:38.646Z,20.10
2018-07-24T21:27:07.284Z,13.63
2018-07-24T21:29:36.012Z,15.97
2018-07-24T21:32:05.053Z,17.57
2018-07-24T21:34:33.747Z,16.07
2018-07-24T21:37:02.300Z,19.93
2018-07-24T21:39:30.969Z,19.57
2018-07-24T21:41:59.714Z,15.37
2018-07-24T21:44:29.202Z,19.47
2018-07-24T21:46:58.148Z,21.10
2018-07-24T21:49:26.943Z,19.73
2018-07-24T21:51:55.799Z,21.27
2018-07-24T21:54:24.521Z,17.90
2018-07-24T21:56:53.247Z,20.03
2018-07-24T21:59:22.152Z,16.53
2018-07-24T22:01:50.882Z,22.50
2018-07-24T22:04:19.889Z,21.10
2018-07-24T22:06:48.611Z,19.77
2018-07-24T22:09:17.352Z,18.23
2018-07-24T22:11:45.996Z,25.93
2018-07-24T22:14:14.640Z,15.80
2018-07-24T22:16:43.432Z,20.00
2018-07-24T22:19:12.069Z,19.27
2018-07-24T22:21:40.789Z,22.13
2018-07-24T22:24:09.473Z,25.30
2018-07-24T22:26:38.140Z,18.20
2018-07-24T22:29:06.912Z,22.90
2018-07-24T22:31:36.136Z,17.33
2018-07-24T22:34:04.850Z,20.30
2018-07-24T22:36:33.459Z,26.43
2018-07-24T22:39:02.172Z,30.30
2018-07-24T22:41:31.156Z,18.33
2018-07-24T22:43:59.831Z,20.73
2018-07-24T22:46:28.960Z,23.10
2018-07-24T22:48:57.613Z,26.63
2018-07-24T22:51:26.256Z,23.77
2018-07-24T22:53:55.824Z,20.00
2018-07-24T22:56:25.095Z,21.33
2018-07-24T22:58:53.943Z,22.20
2018-07-24T23:01:22.923Z,24.73
2018-07-24T23:03:54.782Z,25.03
2018-07-24T23:06:23.680Z,20.67
2018-07-24T23:08:52.516Z,21.30
2018-07-24T23:11:21.340Z,17.97
2018-07-24T23:13:50.100Z,20.83
2018-07-24T23:16:19.637Z,24.10
2018-07-24T23:18:48.601Z,19.37
2018-07-24T23:21:17.581Z,23.70
2018-07-24T23:23:46.863Z,22.23
2018-07-24T23:26:15.469Z,20.40
2018-07-24T23:28:44.256Z,22.53
2018-07-24T23:31:13.123Z,19.13
2018-07-24T23:33:41.806Z,20.37
2018-07-24T23:36:10.790Z,25.07
2018-07-24T23:38:39.476Z,26.00
2018-07-24T23:41:08.191Z,24.40
2018-07-24T23:43:37.720Z,21.17
2018-07-24T23:46:06.520Z,21.40
2018-07-24T23:48:35.303Z,27.13
2018-07-24T23:51:04.412Z,22.10
2018-07-24T23:53:33.076Z,24.93
2018-07-24T23:56:01.896Z,23.43
2018-07-24T23:58:30.653Z,27.70
